createdAt,value
2023-05-08T00:03:55.912Z,92.5
2023-05-08T00:09:01.799Z,91.5
2023-05-08T00:14:07.917Z,94
2023-05-08T00:19:14.017Z,94
2023-05-08T00:24:20.156Z,92
2023-05-08T00:29:26.244Z,92.5
2023-05-08T00:34:32.311Z,92
2023-05-08T00:39:38.404Z,93.5
2023-05-08T00:44:44.528Z,92.5
2023-05-08T00:49:50.610Z,93
2023-05-08T00:54:56.702Z,92.5
2023-05-08T01:00:02.764Z,92.5
2023-05-08T01:05:08.871Z,92
2023-05-08T01:10:15.242Z,93
2023-05-08T01:15:26.744Z,93
2023-05-08T01:20:32.834Z,92.5
2023-05-08T01:25:38.954Z,92
2023-05-08T01:30:45.015Z,92
2023-05-08T01:35:51.169Z,92
2023-05-08T01:40:57.238Z,92.5
2023-05-08T01:46:03.290Z,92
2023-05-08T01:51:09.406Z,92
2023-05-08T01:56:15.479Z,91.5
2023-05-08T02:01:21.628Z,92.5
2023-05-08T02:06:27.661Z,91.5
2023-05-08T02:11:33.776Z,92
2023-05-08T02:16:39.863Z,92.5
2023-05-08T02:21:45.961Z,93.5
2023-05-08T02:26:52.039Z,93
2023-05-08T02:31:58.262Z,92.5
2023-05-08T02:37:04.285Z,93
2023-05-08T02:42:10.350Z,93.5
2023-05-08T02:47:16.435Z,93
2023-05-08T02:52:22.525Z,93
2023-05-08T02:57:34.256Z,92
2023-05-08T03:02:46.027Z,92
2023-05-08T03:07:52.080Z,93
2023-05-08T03:13:03.917Z,93
2023-05-08T03:18:09.956Z,93
2023-05-08T03:23:16.002Z,92.5
2023-05-08T03:28:22.074Z,92.5
2023-05-08T03:33:28.150Z,91.5
2023-05-08T03:38:34.274Z,92.5
2023-05-08T03:43:40.390Z,93.5
2023-05-08T03:48:46.485Z,93
2023-05-08T03:53:52.528Z,93.5
2023-05-08T03:58:58.665Z,93
2023-05-08T04:04:10.372Z,94
2023-05-08T04:09:16.483Z,93.5
2023-05-08T04:14:22.566Z,93
2023-05-08T04:19:28.688Z,93.5
2023-05-08T04:24:34.723Z,92.5
2023-05-08T04:29:40.851Z,92.5
2023-05-08T04:34:46.946Z,94
2023-05-08T04:39:53.023Z,92.5
2023-05-08T04:44:59.123Z,92.5
2023-05-08T04:50:10.833Z,91
2023-05-08T04:55:22.582Z,95.5
2023-05-08T05:00:28.690Z,96
2023-05-08T05:05:35.242Z,95.5
2023-05-08T05:10:40.872Z,94.5
2023-05-08T05:15:46.956Z,95.5
2023-05-08T05:20:53.050Z,97
2023-05-08T05:25:59.177Z,98
2023-05-08T05:31:05.262Z,96
2023-05-08T05:36:11.327Z,96.5
2023-05-08T05:41:17.428Z,94.5
2023-05-08T05:46:23.518Z,95.5
2023-05-08T05:51:29.588Z,95.5
2023-05-08T05:56:35.734Z,96.5
2023-05-08T06:01:41.867Z,96
2023-05-08T06:06:47.878Z,96.5
2023-05-08T06:11:53.991Z,94.5
2023-05-08T06:17:00.148Z,92.5
2023-05-08T06:22:06.197Z,92
2023-05-08T06:27:12.273Z,92
2023-05-08T06:32:18.412Z,93
2023-05-08T06:37:30.084Z,92
2023-05-08T06:42:41.836Z,95
2023-05-08T06:47:47.967Z,90.5
2023-05-08T06:52:54.018Z,93.5
2023-05-08T06:58:00.151Z,94.5
2023-05-08T07:03:06.232Z,94
2023-05-08T07:08:12.310Z,92
2023-05-08T07:13:18.420Z,94.5
2023-05-08T07:18:24.473Z,93.5
2023-05-08T07:23:31.604Z,96
2023-05-08T07:28:36.691Z,97.5
2023-05-08T07:33:44.027Z,96.5
2023-05-08T07:38:49.025Z,96.5
2023-05-08T07:43:55.058Z,95.5
2023-05-08T07:49:01.059Z,96.5
2023-05-08T07:54:07.158Z,97.5
2023-05-08T07:59:13.250Z,95.5
2023-05-08T08:04:19.388Z,90.5
2023-05-08T08:09:25.466Z,84.5
2023-05-08T08:14:31.516Z,83
2023-05-08T08:19:37.624Z,89
2023-05-08T08:24:49.362Z,78
2023-05-08T08:30:04.810Z,86.5
2023-05-08T08:35:01.551Z,84.5
2023-05-08T08:40:07.639Z,75.5
2023-05-08T08:45:13.886Z,86.5
2023-05-08T08:50:19.837Z,91
2023-05-08T08:55:25.939Z,91.5
2023-05-08T09:00:32.083Z,92.5
2023-05-08T09:05:38.118Z,92.5
2023-05-08T09:10:44.222Z,92.5
2023-05-08T09:15:50.334Z,89
2023-05-08T09:20:56.417Z,87.5
2023-05-08T09:26:02.518Z,86.5
2023-05-08T09:31:08.612Z,85
2023-05-08T09:36:14.708Z,86.5
2023-05-08T09:41:20.768Z,87.5
2023-05-08T09:46:27.051Z,88.5
2023-05-08T09:51:32.953Z,88
2023-05-08T09:56:39.083Z,88.5
2023-05-08T10:01:45.171Z,90
2023-05-08T10:06:56.913Z,85
2023-05-08T10:12:08.633Z,86
2023-05-08T10:17:20.401Z,83.5
2023-05-08T10:22:26.441Z,85
2023-05-08T10:27:33.536Z,84
2023-05-08T10:32:38.695Z,84
2023-05-08T10:37:44.724Z,84.5
2023-05-08T10:42:50.865Z,83
2023-05-08T10:47:56.994Z,83.5
2023-05-08T10:53:03.062Z,85.5
2023-05-08T10:58:09.134Z,84.5
2023-05-08T11:03:27.614Z,84.5
2023-05-08T11:08:21.309Z,82
2023-05-08T11:13:27.414Z,82
2023-05-08T11:23:39.592Z,77
2023-05-08T11:28:45.682Z,77.5
2023-05-08T11:33:51.792Z,78.5
2023-05-08T11:38:57.878Z,79
2023-05-08T11:44:04.013Z,78.5
2023-05-08T11:49:10.104Z,78.5
2023-05-08T11:54:27.372Z,73.5
2023-05-08T11:59:33.459Z,76.5
2023-05-08T12:04:39.661Z,79
2023-05-08T12:09:45.643Z,77
2023-05-08T12:14:51.740Z,79
2023-05-08T12:19:57.856Z,77.5
2023-05-08T12:25:03.976Z,79.5
2023-05-08T12:30:10.040Z,76
2023-05-08T12:35:16.143Z,78.5
2023-05-08T12:40:22.241Z,76.5
2023-05-08T12:45:28.419Z,75
2023-05-08T12:50:34.409Z,78.5
2023-05-08T12:55:40.496Z,77.5
2023-05-08T13:00:46.664Z,75
2023-05-08T13:05:52.730Z,74.5
2023-05-08T13:10:58.794Z,78
2023-05-08T13:16:04.944Z,75.5
2023-05-08T13:21:11.069Z,75.5
2023-05-08T13:26:17.081Z,76
2023-05-08T13:31:28.828Z,76
2023-05-08T13:36:34.904Z,77
2023-05-08T13:41:41.014Z,75
2023-05-08T13:46:47.101Z,75.5
2023-05-08T13:51:56.872Z,78
2023-05-08T13:56:59.270Z,75.5
2023-05-08T14:02:05.413Z,75
2023-05-08T14:07:11.452Z,74
2023-05-08T14:12:17.600Z,73.5
2023-05-08T14:17:23.736Z,75.5
2023-05-08T14:22:29.762Z,75
2023-05-08T14:27:35.856Z,75.5
2023-05-08T14:32:42.022Z,74.5
2023-05-08T14:37:48.034Z,75
2023-05-08T14:42:54.152Z,73
2023-05-08T14:48:00.274Z,72.5
2023-05-08T14:53:06.402Z,74.5
2023-05-08T14:58:12.434Z,72
2023-05-08T15:03:18.648Z,73.5
2023-05-08T15:08:30.256Z,72.5
2023-05-08T15:13:36.340Z,73
2023-05-08T15:18:42.423Z,74
2023-05-08T15:23:48.559Z,73.5
2023-05-08T15:28:54.613Z,73
2023-05-08T15:34:00.762Z,74.5
2023-05-08T15:39:06.828Z,76.5
2023-05-08T15:44:12.916Z,75.5
2023-05-08T15:49:18.985Z,72.5
2023-05-08T15:54:25.118Z,74.5
2023-05-08T15:59:31.292Z,73.5
2023-05-08T16:04:37.298Z,71
2023-05-08T16:09:43.347Z,71.5
2023-05-08T16:14:49.472Z,68.5
2023-05-08T16:19:55.711Z,70
2023-05-08T16:25:01.886Z,71
2023-05-08T16:30:07.893Z,74.5
2023-05-08T16:35:14.207Z,75
2023-05-08T16:40:20.115Z,75.5
2023-05-08T16:45:37.401Z,72.5
2023-05-08T16:50:43.552Z,74
2023-05-08T16:55:49.601Z,74
2023-05-08T17:00:55.682Z,72.5
2023-05-08T17:06:01.769Z,73
2023-05-08T17:11:07.871Z,73
2023-05-08T17:16:14.001Z,73.5
2023-05-08T17:21:20.061Z,75
2023-05-08T17:26:26.172Z,75.5
2023-05-08T17:31:32.267Z,77
2023-05-08T17:36:38.368Z,77
2023-05-08T17:41:44.424Z,75
2023-05-08T17:46:50.539Z,71
2023-05-08T17:51:56.632Z,74.5
2023-05-08T17:57:02.730Z,76.5
2023-05-08T18:02:08.957Z,76.5
2023-05-08T18:07:14.922Z,77.5
2023-05-08T18:12:20.995Z,77.5
2023-05-08T18:17:27.133Z,79
2023-05-08T18:22:44.408Z,79
2023-05-08T18:27:50.554Z,79
2023-05-08T18:32:56.627Z,80.5
2023-05-08T18:38:02.707Z,80
2023-05-08T18:43:08.819Z,80.5
2023-05-08T18:48:14.919Z,81
2023-05-08T18:53:20.986Z,82.5
2023-05-08T18:58:27.063Z,82.5
2023-05-08T19:03:33.192Z,81.5
2023-05-08T19:08:39.275Z,82.5
2023-05-08T19:13:45.365Z,82.5
2023-05-08T19:18:51.445Z,82.5
2023-05-08T19:23:57.543Z,82
2023-05-08T19:29:03.637Z,82.5
2023-05-08T19:34:09.740Z,83.5
2023-05-08T19:39:15.837Z,83
2023-05-08T19:44:27.565Z,82.5
2023-05-08T19:49:33.673Z,83.5
2023-05-08T19:54:45.406Z,83.5
2023-05-08T19:59:51.495Z,84
2023-05-08T20:10:03.680Z,82.5
2023-05-08T20:15:09.766Z,83
2023-05-08T20:20:15.992Z,84
2023-05-08T20:25:21.986Z,83
2023-05-08T20:30:28.088Z,82.5
2023-05-08T20:35:34.149Z,83
2023-05-08T20:40:40.249Z,83
2023-05-08T20:45:46.366Z,83.5
2023-05-08T20:50:52.434Z,84
2023-05-08T20:55:58.511Z,84
2023-05-08T21:01:04.659Z,84.5
2023-05-08T21:06:10.712Z,85
2023-05-08T21:11:16.819Z,85
2023-05-08T21:16:24.309Z,85.5
2023-05-08T21:21:28.995Z,85.5
2023-05-08T21:26:35.121Z,85.5
2023-05-08T21:31:46.868Z,85
2023-05-08T21:36:52.928Z,85
2023-05-08T21:41:59.019Z,85.5
2023-05-08T21:47:05.166Z,85.5
2023-05-08T21:52:11.205Z,85.5
2023-05-08T21:57:17.294Z,85.5
2023-05-08T22:02:23.415Z,85.5
2023-05-08T22:07:29.496Z,85.5
2023-05-08T22:12:35.611Z,86
2023-05-08T22:17:41.740Z,86.5
2023-05-08T22:22:47.787Z,85.5
2023-05-08T22:27:53.941Z,86.5
2023-05-08T22:33:00.096Z,86
2023-05-08T22:38:06.097Z,86.5
2023-05-08T22:43:12.173Z,86
2023-05-08T22:48:18.274Z,87
2023-05-08T22:53:24.380Z,86.5
2023-05-08T22:58:30.463Z,86.5
2023-05-08T23:03:36.580Z,86
2023-05-08T23:08:48.309Z,86
2023-05-08T23:13:54.365Z,86
2023-05-08T23:19:00.454Z,85.5
2023-05-08T23:24:06.536Z,85
2023-05-08T23:29:12.657Z,86.5
2023-05-08T23:34:18.731Z,87
2023-05-08T23:39:24.805Z,86
2023-05-08T23:44:30.920Z,87
2023-05-08T23:49:37.001Z,87
2023-05-08T23:54:43.104Z,87
2023-05-08T23:59:49.194Z,87
